Time;durP1;ratioP1;P1;durP2;ratioP2;P2;SDS_P1;SDS_P2;PMS_P1;PMS_P2;Temp;Humidity;BMP_temperature;BMP_pressure;BME280_temperature;BME280_humidity;BME280_pressure;Samples;Min_cycle;Max_cycle;Signal;HPM_P1;HPM_P2
2024/03/24 00:01:33;;;;;;;7.05;5.20;;;;;;;;;;5066942;28;20185;-89
2024/03/24 00:03:59;;;;;;;11.00;4.90;;;;;;;;;;5055227;28;20184;-88
2024/03/24 00:06:25;;;;;;;6.90;4.60;;;;;;;;;;5060773;28;20182;-88
2024/03/24 00:08:52;;;;;;;7.40;5.00;;;;;;;;;;5069850;28;20540;-89
2024/03/24 00:11:18;;;;;;;8.60;5.20;;;;;;;;;;5047590;28;20444;-88
2024/03/24 00:13:44;;;;;;;6.55;4.95;;;;;;;;;;5055081;28;20646;-88
2024/03/24 00:16:10;;;;;;;5.60;4.63;;;;;;;;;;5063008;28;20205;-88
2024/03/24 00:18:36;;;;;;;8.48;5.18;;;;;;;;;;5067831;28;20461;-88
2024/03/24 00:21:01;;;;;;;9.43;5.50;;;;;;;;;;5065164;28;20189;-87
2024/03/24 00:23:27;;;;;;;9.10;5.37;;;;;;;;;;5048486;28;20439;-88
2024/03/24 00:25:53;;;;;;;8.90;4.93;;;;;;;;;;5051017;28;20460;-88
2024/03/24 00:28:19;;;;;;;8.43;5.60;;;;;;;;;;5060185;28;20228;-88
2024/03/24 00:30:45;;;;;;;8.30;5.83;;;;;;;;;;5045930;28;20452;-88
2024/03/24 00:33:11;;;;;;;11.90;5.90;;;;;;;;;;5069016;28;20469;-87
2024/03/24 00:35:37;;;;;;;8.50;5.90;;;;;;;;;;5059979;28;20437;-88
2024/03/24 00:38:04;;;;;;;14.63;5.43;;;;;;;;;;5061744;28;20227;-87
2024/03/24 00:40:30;;;;;;;10.93;5.32;;;;;;;;;;5061416;28;20186;-88
2024/03/24 00:42:56;;;;;;;8.05;4.80;;;;;;;;;;5069484;28;20664;-88
2024/03/24 00:45:22;;;;;;;12.18;5.30;;;;;;;;;;5063633;28;20182;-88
2024/03/24 00:47:51;;;;;;;9.27;4.85;;;;;;;;;;5049484;28;20595;-88
2024/03/24 00:50:17;;;;;;;9.48;5.47;;;;;;;;;;5069305;28;20241;-86
2024/03/24 00:52:43;;;;;;;9.60;5.35;;;;;;;;;;5049148;28;20260;-87
2024/03/24 00:55:09;;;;;;;11.18;6.97;;;;;;;;;;5054876;28;20192;-87
2024/03/24 00:57:35;;;;;;;13.40;6.30;;;;;;;;;;5055835;28;20265;-87
2024/03/24 01:00:02;;;;;;;7.93;6.10;;;;;;;;;;5062615;28;20210;-87
2024/03/24 01:02:28;;;;;;;13.10;6.03;;;;;;;;;;5064869;28;20413;-88
2024/03/24 01:04:54;;;;;;;14.38;6.93;;;;;;;;;;5065373;28;20315;-87
2024/03/24 01:07:20;;;;;;;8.25;7.03;;;;;;;;;;5047292;28;20193;-86
2024/03/24 01:09:46;;;;;;;12.50;6.57;;;;;;;;;;5063298;28;20192;-88
2024/03/24 01:12:12;;;;;;;14.43;7.90;;;;;;;;;;5053357;28;20617;-88
2024/03/24 01:14:39;;;;;;;14.83;8.03;;;;;;;;;;5054589;28;20472;-87
2024/03/24 01:17:05;;;;;;;16.50;7.25;;;;;;;;;;5050183;28;20441;-87
2024/03/24 01:19:31;;;;;;;10.93;6.37;;;;;;;;;;5067014;28;20185;-87
2024/03/24 01:21:57;;;;;;;10.77;7.20;;;;;;;;;;5061578;28;20440;-87
2024/03/24 01:24:23;;;;;;;11.50;6.40;;;;;;;;;;5067014;28;20420;-86
2024/03/24 01:26:49;;;;;;;10.20;6.83;;;;;;;;;;5046330;28;20461;-88
2024/03/24 01:29:15;;;;;;;14.83;6.63;;;;;;;;;;5063921;28;20440;-88
2024/03/24 01:31:41;;;;;;;12.70;7.10;;;;;;;;;;5052625;28;20569;-87
2024/03/24 01:34:07;;;;;;;10.55;6.90;;;;;;;;;;5062897;28;20475;-88
2024/03/24 01:36:34;;;;;;;10.68;7.35;;;;;;;;;;5048026;28;20216;-87
2024/03/24 01:39:00;;;;;;;16.15;8.73;;;;;;;;;;5060678;28;20192;-88
2024/03/24 01:41:27;;;;;;;8.20;5.97;;;;;;;;;;5049457;28;20181;-88
2024/03/24 01:43:53;;;;;;;14.07;7.47;;;;;;;;;;5050551;28;20456;-87
2024/03/24 01:46:19;;;;;;;12.63;7.77;;;;;;;;;;5063183;28;20245;-86
2024/03/24 01:48:45;;;;;;;11.40;6.80;;;;;;;;;;5046674;28;20438;-87
2024/03/24 01:51:12;;;;;;;13.47;8.67;;;;;;;;;;5061193;28;20431;-87
2024/03/24 01:53:39;;;;;;;14.10;9.25;;;;;;;;;;5060039;28;20468;-87
2024/03/24 01:56:05;;;;;;;13.77;8.55;;;;;;;;;;5047326;28;20190;-87
2024/03/24 01:58:32;;;;;;;12.77;8.98;;;;;;;;;;5064183;28;20170;-87
2024/03/24 02:00:58;;;;;;;17.23;9.60;;;;;;;;;;5060612;28;20194;-87
2024/03/24 02:03:24;;;;;;;14.48;9.55;;;;;;;;;;5068494;28;20182;-86
2024/03/24 02:05:50;;;;;;;11.38;9.60;;;;;;;;;;5066755;28;20543;-86
2024/03/24 02:08:16;;;;;;;14.43;9.93;;;;;;;;;;5059304;28;20190;-87
2024/03/24 02:10:42;;;;;;;22.85;10.73;;;;;;;;;;5066515;28;20937;-86
2024/03/24 02:13:08;;;;;;;15.05;9.52;;;;;;;;;;5061203;28;20205;-85
2024/03/24 02:15:34;;;;;;;17.95;9.77;;;;;;;;;;5060814;28;20189;-86
2024/03/24 02:18:00;;;;;;;14.80;11.75;;;;;;;;;;5058620;28;20295;-86
2024/03/24 02:20:26;;;;;;;15.13;9.53;;;;;;;;;;5047982;28;20615;-86
2024/03/24 02:22:52;;;;;;;13.40;10.07;;;;;;;;;;5044687;28;20470;-86
2024/03/24 02:25:18;;;;;;;14.43;10.43;;;;;;;;;;5050188;28;20462;-86
2024/03/24 02:27:44;;;;;;;14.70;10.30;;;;;;;;;;5055228;28;20415;-86
2024/03/24 02:30:10;;;;;;;14.60;9.17;;;;;;;;;;5050865;28;20520;-86
2024/03/24 02:32:38;;;;;;;12.23;10.20;;;;;;;;;;5061692;28;20438;-86
2024/03/24 02:35:04;;;;;;;13.05;9.50;;;;;;;;;;5049016;28;20178;-85
2024/03/24 02:37:30;;;;;;;14.77;10.02;;;;;;;;;;5066574;28;20191;-85
2024/03/24 02:39:56;;;;;;;15.17;9.33;;;;;;;;;;5054844;28;20185;-87
2024/03/24 02:42:22;;;;;;;10.20;7.27;;;;;;;;;;5057466;28;20437;-88
2024/03/24 02:44:48;;;;;;;10.07;8.55;;;;;;;;;;5066805;28;20442;-87
2024/03/24 02:47:14;;;;;;;7.75;6.70;;;;;;;;;;5058179;28;20234;-85
2024/03/24 02:49:40;;;;;;;12.13;6.78;;;;;;;;;;5052299;28;20596;-88
2024/03/24 02:52:06;;;;;;;9.30;5.83;;;;;;;;;;5046768;28;20191;-88
2024/03/24 02:54:32;;;;;;;14.40;7.40;;;;;;;;;;5059733;28;20879;-87
2024/03/24 02:56:58;;;;;;;7.10;5.33;;;;;;;;;;5060965;28;20439;-86
2024/03/24 02:59:24;;;;;;;6.28;4.63;;;;;;;;;;5048729;28;20836;-87
2024/03/24 03:01:50;;;;;;;12.80;6.60;;;;;;;;;;5065310;28;20285;-86
2024/03/24 03:04:16;;;;;;;10.63;5.33;;;;;;;;;;5053997;28;20764;-87
2024/03/24 03:06:42;;;;;;;15.03;6.00;;;;;;;;;;5059607;28;20435;-87
2024/03/24 03:09:08;;;;;;;15.63;6.38;;;;;;;;;;5057833;28;20434;-89
2024/03/24 03:11:34;;;;;;;9.55;6.30;;;;;;;;;;5059696;28;20186;-88
2024/03/24 03:14:00;;;;;;;6.95;5.60;;;;;;;;;;5047899;28;20230;-89
2024/03/24 03:16:27;;;;;;;12.23;5.00;;;;;;;;;;5047791;28;20206;-91
2024/03/24 03:18:52;;;;;;;7.45;4.65;;;;;;;;;;5067627;28;20188;-88
2024/03/24 03:21:18;;;;;;;5.83;4.70;;;;;;;;;;5050407;28;20215;-86
2024/03/24 03:23:44;;;;;;;9.82;5.00;;;;;;;;;;5065957;28;20454;-86
2024/03/24 03:26:10;;;;;;;10.80;5.80;;;;;;;;;;5044315;28;20186;-85
2024/03/24 03:28:36;;;;;;;9.80;5.50;;;;;;;;;;5066314;28;20462;-86
2024/03/24 03:31:02;;;;;;;7.17;5.27;;;;;;;;;;5063561;28;20523;-86
2024/03/24 03:33:28;;;;;;;7.03;5.57;;;;;;;;;;5065862;28;20461;-85
2024/03/24 03:35:54;;;;;;;9.90;5.55;;;;;;;;;;5056133;28;20193;-85
2024/03/24 03:38:20;;;;;;;5.77;4.60;;;;;;;;;;5052220;28;20204;-85
2024/03/24 03:40:46;;;;;;;9.27;5.70;;;;;;;;;;5045652;28;20512;-86
2024/03/24 03:43:16;;;;;;;7.85;5.50;;;;;;;;;;5069514;28;20462;-86
2024/03/24 03:45:42;;;;;;;7.85;5.70;;;;;;;;;;5047238;28;20197;-85
2024/03/24 03:48:08;;;;;;;8.03;4.93;;;;;;;;;;5065168;28;20187;-86
2024/03/24 03:50:37;;;;;;;7.45;3.90;;;;;;;;;;5046960;28;20439;-85
2024/03/24 03:53:03;;;;;;;6.13;4.35;;;;;;;;;;5066018;28;20359;-88
2024/03/24 03:55:29;;;;;;;9.85;5.25;;;;;;;;;;5046376;28;20537;-87
2024/03/24 03:57:55;;;;;;;4.60;4.05;;;;;;;;;;5071280;28;20197;-91
2024/03/24 04:00:21;;;;;;;5.80;4.47;;;;;;;;;;5072110;28;20398;-89
2024/03/24 04:02:48;;;;;;;8.75;4.60;;;;;;;;;;5070245;28;20433;-90
2024/03/24 04:05:14;;;;;;;4.20;3.30;;;;;;;;;;5070267;28;20178;-90
2024/03/24 04:07:40;;;;;;;7.03;4.50;;;;;;;;;;5065092;28;20189;-89
2024/03/24 04:10:07;;;;;;;4.82;3.70;;;;;;;;;;5071981;28;20184;-88
2024/03/24 04:12:33;;;;;;;5.95;4.10;;;;;;;;;;5065429;28;20192;-88
2024/03/24 04:15:00;;;;;;;3.22;2.92;;;;;;;;;;5062520;28;20307;-88
2024/03/24 04:17:26;;;;;;;4.95;4.45;;;;;;;;;;5045526;28;20181;-87
2024/03/24 04:19:54;;;;;;;6.45;4.75;;;;;;;;;;5060753;28;20654;-88
2024/03/24 04:22:21;;;;;;;8.88;3.30;;;;;;;;;;5065341;28;20181;-88
2024/03/24 04:24:47;;;;;;;6.00;4.05;;;;;;;;;;5062795;28;20196;-86
2024/03/24 04:27:14;;;;;;;8.70;4.30;;;;;;;;;;5067249;28;20215;-87
2024/03/24 04:29:40;;;;;;;6.85;3.85;;;;;;;;;;5069168;28;20178;-88
2024/03/24 04:32:06;;;;;;;5.13;3.78;;;;;;;;;;5064426;28;20193;-88
2024/03/24 04:34:32;;;;;;;7.25;4.60;;;;;;;;;;5053101;28;20271;-87
2024/03/24 04:36:59;;;;;;;9.20;5.10;;;;;;;;;;5064925;28;20189;-85
2024/03/24 04:39:25;;;;;;;13.27;7.45;;;;;;;;;;5059758;28;20187;-87
2024/03/24 04:41:51;;;;;;;15.15;5.55;;;;;;;;;;5061509;28;20256;-86
2024/03/24 04:44:17;;;;;;;15.43;6.90;;;;;;;;;;5068032;28;20213;-84
2024/03/24 04:46:43;;;;;;;10.70;5.63;;;;;;;;;;5067427;28;20494;-84
2024/03/24 04:49:09;;;;;;;15.83;6.27;;;;;;;;;;5054050;28;20456;-82
2024/03/24 04:51:35;;;;;;;7.43;5.32;;;;;;;;;;5059138;28;20506;-83
2024/03/24 04:54:02;;;;;;;8.05;5.88;;;;;;;;;;5052939;28;20296;-83
2024/03/24 04:56:28;;;;;;;12.82;8.05;;;;;;;;;;5066903;28;20178;-84
2024/03/24 04:58:54;;;;;;;7.88;6.00;;;;;;;;;;5071949;28;20205;-86
2024/03/24 05:01:20;;;;;;;13.90;6.97;;;;;;;;;;5051545;28;20181;-87
2024/03/24 05:03:46;;;;;;;10.17;5.93;;;;;;;;;;5056226;28;20505;-86
2024/03/24 05:06:12;;;;;;;15.17;7.13;;;;;;;;;;5064481;28;20447;-86
2024/03/24 05:08:37;;;;;;;9.63;6.70;;;;;;;;;;5062741;28;20432;-86
2024/03/24 05:11:09;;;;;;;18.13;7.93;;;;;;;;;;5051629;28;20931;-84
2024/03/24 05:13:35;;;;;;;19.25;5.90;;;;;;;;;;5067803;28;20509;-86
2024/03/24 05:16:01;;;;;;;13.65;8.55;;;;;;;;;;5049290;28;20228;-86
2024/03/24 05:18:27;;;;;;;11.43;7.27;;;;;;;;;;5067719;28;20189;-87
2024/03/24 05:20:53;;;;;;;8.15;5.00;;;;;;;;;;5065508;28;20450;-86
2024/03/24 05:23:19;;;;;;;13.02;7.28;;;;;;;;;;5065964;28;20203;-87
2024/03/24 05:25:49;;;;;;;14.07;7.15;;;;;;;;;;5073167;28;20184;-86
2024/03/24 05:28:15;;;;;;;12.10;9.27;;;;;;;;;;5063824;28;20185;-87
2024/03/24 05:30:44;;;;;;;13.75;6.32;;;;;;;;;;5067850;28;20537;-87
2024/03/24 05:33:10;;;;;;;20.45;7.68;;;;;;;;;;5063685;28;20189;-88
2024/03/24 05:35:36;;;;;;;18.48;8.38;;;;;;;;;;5047384;28;20198;-87
2024/03/24 05:38:02;;;;;;;16.27;8.87;;;;;;;;;;5068526;28;20699;-86
2024/03/24 05:40:28;;;;;;;16.77;7.90;;;;;;;;;;5044421;28;20971;-86
2024/03/24 05:42:54;;;;;;;13.57;6.87;;;;;;;;;;5065989;28;20182;-87
2024/03/24 05:45:20;;;;;;;11.27;6.47;;;;;;;;;;5064163;28;20432;-89
2024/03/24 05:47:46;;;;;;;18.60;6.45;;;;;;;;;;5048145;28;20971;-88
2024/03/24 05:50:13;;;;;;;15.35;6.05;;;;;;;;;;5067502;28;20192;-91
2024/03/24 05:52:39;;;;;;;23.53;9.20;;;;;;;;;;5067086;28;20177;-88
2024/03/24 05:55:05;;;;;;;13.18;6.30;;;;;;;;;;5066059;28;20482;-91
2024/03/24 05:57:34;;;;;;;19.73;7.63;;;;;;;;;;5061958;28;20178;-91
2024/03/24 06:00:00;;;;;;;19.83;7.75;;;;;;;;;;5061538;28;20197;-91
2024/03/24 06:02:29;;;;;;;17.23;7.03;;;;;;;;;;5061250;28;20178;-91
2024/03/24 06:04:55;;;;;;;19.50;6.25;;;;;;;;;;5072806;28;20679;-91
2024/03/24 06:07:22;;;;;;;11.93;8.00;;;;;;;;;;5051224;28;20184;-91
2024/03/24 06:09:49;;;;;;;18.25;6.32;;;;;;;;;;5045703;28;20432;-89
2024/03/24 06:12:14;;;;;;;12.80;5.82;;;;;;;;;;5049198;28;20553;-90
2024/03/24 06:14:40;;;;;;;10.30;4.90;;;;;;;;;;5063375;28;20216;-90
2024/03/24 06:17:09;;;;;;;10.53;5.70;;;;;;;;;;5062920;28;20805;-87
2024/03/24 06:19:35;;;;;;;20.98;6.47;;;;;;;;;;5042836;28;20483;-89
2024/03/24 06:22:01;;;;;;;8.67;5.07;;;;;;;;;;5059756;28;20186;-92
2024/03/24 06:24:27;;;;;;;12.63;6.40;;;;;;;;;;5068906;28;20407;-90
2024/03/24 06:26:53;;;;;;;13.80;7.03;;;;;;;;;;5066174;28;20272;-91
2024/03/24 06:29:19;;;;;;;15.40;7.05;;;;;;;;;;5064474;28;20479;-91
2024/03/24 06:31:45;;;;;;;9.60;3.97;;;;;;;;;;5068961;28;20196;-94
2024/03/24 06:34:11;;;;;;;16.50;7.30;;;;;;;;;;5049472;28;20524;-95
2024/03/24 06:36:41;;;;;;;16.92;7.05;;;;;;;;;;5049971;28;20799;-94
2024/03/24 06:39:08;;;;;;;12.55;5.85;;;;;;;;;;5050789;28;20179;-93
2024/03/24 06:41:42;;;;;;;10.63;6.10;;;;;;;;;;5066690;28;20170;-86
2024/03/24 06:44:13;;;;;;;14.57;6.55;;;;;;;;;;5046255;28;20256;-90
2024/03/24 06:46:45;;;;;;;11.10;3.50;;;;;;;;;;5064175;28;20311;-87
2024/03/24 06:49:12;;;;;;;13.85;6.22;;;;;;;;;;5065885;28;20271;-89
2024/03/24 06:51:38;;;;;;;9.18;5.88;;;;;;;;;;5071372;28;20583;-94
2024/03/24 06:54:04;;;;;;;8.63;4.57;;;;;;;;;;5063596;28;20244;-92
2024/03/24 06:56:30;;;;;;;18.23;5.72;;;;;;;;;;5068556;28;20250;-88
2024/03/24 06:58:56;;;;;;;5.65;3.35;;;;;;;;;;5066937;28;20273;-93
2024/03/24 07:01:22;;;;;;;11.13;5.60;;;;;;;;;;5050258;28;20575;-90
2024/03/24 07:03:48;;;;;;;8.17;5.03;;;;;;;;;;5051335;28;20411;-88
2024/03/24 07:06:14;;;;;;;11.65;5.70;;;;;;;;;;5063433;28;20809;-87
2024/03/24 07:08:41;;;;;;;16.50;4.50;;;;;;;;;;5045381;28;20256;-88
2024/03/24 07:11:07;;;;;;;10.82;4.90;;;;;;;;;;5052335;28;20434;-91
2024/03/24 07:13:33;;;;;;;7.88;3.90;;;;;;;;;;5066467;28;20289;-90
2024/03/24 07:15:59;;;;;;;12.93;4.78;;;;;;;;;;5063539;28;20547;-88
2024/03/24 07:18:25;;;;;;;7.10;4.80;;;;;;;;;;5062009;28;20193;-90
2024/03/24 07:21:00;;;;;;;8.50;4.53;;;;;;;;;;5046543;28;20181;-90
2024/03/24 07:23:26;;;;;;;7.75;5.05;;;;;;;;;;5066473;28;20436;-91
2024/03/24 07:25:52;;;;;;;10.48;3.53;;;;;;;;;;5061868;28;20547;-87
2024/03/24 07:28:18;;;;;;;7.57;3.88;;;;;;;;;;5059753;28;20534;-87
2024/03/24 07:30:45;;;;;;;3.17;2.35;;;;;;;;;;5048352;28;20261;-91
2024/03/24 07:33:12;;;;;;;5.15;4.00;;;;;;;;;;5072820;28;20711;-87
2024/03/24 07:35:38;;;;;;;6.13;3.42;;;;;;;;;;5069377;28;20177;-91
2024/03/24 07:38:04;;;;;;;7.80;5.00;;;;;;;;;;5067052;28;20181;-87
2024/03/24 07:40:30;;;;;;;5.38;2.65;;;;;;;;;;5062954;28;20209;-94
2024/03/24 07:42:56;;;;;;;10.53;3.93;;;;;;;;;;5056237;28;20185;-88
2024/03/24 07:45:23;;;;;;;6.67;3.20;;;;;;;;;;5069564;28;20482;-89
2024/03/24 07:47:49;;;;;;;12.15;3.30;;;;;;;;;;5051751;28;20471;-89
2024/03/24 07:50:15;;;;;;;5.25;2.67;;;;;;;;;;5069112;28;20180;-87
2024/03/24 07:52:41;;;;;;;6.63;2.75;;;;;;;;;;5068408;28;20174;-88
2024/03/24 07:55:07;;;;;;;6.60;2.95;;;;;;;;;;5067070;28;20264;-89
2024/03/24 07:57:34;;;;;;;15.07;3.40;;;;;;;;;;5068607;28;20635;-90
2024/03/24 08:00:00;;;;;;;4.95;2.65;;;;;;;;;;5063025;28;20204;-90
2024/03/24 08:02:26;;;;;;;2.97;1.95;;;;;;;;;;5049762;28;20186;-89
2024/03/24 08:04:52;;;;;;;2.35;1.95;;;;;;;;;;5065163;28;20189;-88
2024/03/24 08:07:18;;;;;;;6.50;1.92;;;;;;;;;;5067907;28;20173;-90
2024/03/24 08:09:44;;;;;;;4.75;2.60;;;;;;;;;;5061163;28;20213;-90
2024/03/24 08:12:10;;;;;;;4.70;3.05;;;;;;;;;;5058294;28;20729;-90
2024/03/24 08:14:36;;;;;;;7.03;2.97;;;;;;;;;;5067118;28;20214;-90
2024/03/24 08:17:02;;;;;;;6.55;2.85;;;;;;;;;;5072403;28;20469;-87
2024/03/24 08:19:28;;;;;;;3.03;2.53;;;;;;;;;;5069559;28;20182;-88
2024/03/24 08:21:56;;;;;;;4.00;2.93;;;;;;;;;;5053237;28;20290;-91
2024/03/24 08:24:22;;;;;;;5.38;2.22;;;;;;;;;;5070363;28;20430;-92
2024/03/24 08:26:48;;;;;;;11.70;4.97;;;;;;;;;;5057222;28;20182;-88
2024/03/24 08:29:14;;;;;;;9.63;4.20;;;;;;;;;;5063335;28;20429;-90
2024/03/24 08:31:40;;;;;;;3.67;2.58;;;;;;;;;;5058724;28;20435;-89
2024/03/24 08:34:06;;;;;;;2.75;1.73;;;;;;;;;;5050431;28;20205;-92
2024/03/24 08:36:32;;;;;;;9.30;3.30;;;;;;;;;;5056398;28;20649;-92
2024/03/24 08:38:58;;;;;;;8.90;2.40;;;;;;;;;;5052013;28;20505;-91
2024/03/24 08:41:24;;;;;;;5.88;3.83;;;;;;;;;;5066241;28;20439;-87
2024/03/24 08:43:51;;;;;;;5.67;2.73;;;;;;;;;;5065862;28;20215;-90
2024/03/24 08:46:17;;;;;;;6.13;3.08;;;;;;;;;;5064898;28;20479;-91
2024/03/24 08:48:43;;;;;;;2.40;2.20;;;;;;;;;;5068171;28;20201;-87
2024/03/24 08:51:09;;;;;;;6.65;2.78;;;;;;;;;;5067595;28;20177;-89
2024/03/24 08:53:35;;;;;;;6.83;2.30;;;;;;;;;;5052878;28;20216;-87
2024/03/24 08:56:03;;;;;;;4.97;2.83;;;;;;;;;;5053757;28;20432;-93
2024/03/24 08:58:29;;;;;;;3.75;2.55;;;;;;;;;;5047180;28;20433;-86
2024/03/24 09:00:55;;;;;;;5.57;2.13;;;;;;;;;;5054010;28;20559;-88
2024/03/24 09:03:21;;;;;;;13.57;3.00;;;;;;;;;;5055530;28;20408;-90
2024/03/24 09:05:47;;;;;;;5.23;2.87;;;;;;;;;;5049153;28;20196;-90
2024/03/24 09:08:13;;;;;;;5.83;2.80;;;;;;;;;;5069233;28;20504;-90
2024/03/24 09:10:39;;;;;;;6.70;3.67;;;;;;;;;;5067430;28;20466;-88
2024/03/24 09:13:05;;;;;;;3.20;2.60;;;;;;;;;;5063280;28;20436;-88
2024/03/24 09:15:31;;;;;;;3.65;2.70;;;;;;;;;;5049470;28;20462;-92
2024/03/24 09:17:57;;;;;;;4.15;2.45;;;;;;;;;;5068268;28;20554;-91
2024/03/24 09:20:23;;;;;;;5.32;2.50;;;;;;;;;;5054828;28;20268;-87
2024/03/24 09:22:49;;;;;;;6.45;2.53;;;;;;;;;;5058665;28;20186;-87
2024/03/24 09:25:15;;;;;;;2.95;2.20;;;;;;;;;;5068000;28;20190;-86
2024/03/24 09:27:41;;;;;;;4.27;1.87;;;;;;;;;;5067140;28;20190;-87
2024/03/24 09:30:07;;;;;;;6.37;2.43;;;;;;;;;;5047837;28;20950;-86
2024/03/24 09:32:33;;;;;;;3.95;2.20;;;;;;;;;;5054480;28;20408;-85
2024/03/24 09:34:59;;;;;;;5.57;2.60;;;;;;;;;;5067508;28;20216;-88
2024/03/24 09:37:25;;;;;;;4.97;2.27;;;;;;;;;;5046818;28;20452;-85
2024/03/24 09:39:51;;;;;;;7.50;2.37;;;;;;;;;;5047673;28;21003;-86
2024/03/24 09:42:19;;;;;;;33.47;5.30;;;;;;;;;;5065895;28;20454;-83
2024/03/24 09:44:47;;;;;;;4.28;2.53;;;;;;;;;;5071618;28;20538;-85
2024/03/24 09:47:13;;;;;;;4.25;2.67;;;;;;;;;;5069341;28;20696;-84
2024/03/24 09:49:40;;;;;;;6.80;3.40;;;;;;;;;;5043339;28;20570;-84
2024/03/24 09:52:08;;;;;;;8.32;4.07;;;;;;;;;;5048221;28;20173;-87
2024/03/24 09:54:34;;;;;;;10.38;3.13;;;;;;;;;;5053778;28;20204;-87
2024/03/24 09:57:00;;;;;;;7.93;3.90;;;;;;;;;;5044170;28;20208;-84
2024/03/24 09:59:27;;;;;;;11.50;4.20;;;;;;;;;;5052395;28;20189;-87
2024/03/24 10:01:54;;;;;;;9.13;3.53;;;;;;;;;;5059191;28;20183;-85
2024/03/24 10:04:21;;;;;;;6.57;3.83;;;;;;;;;;5064367;28;20224;-86
2024/03/24 10:06:47;;;;;;;6.70;3.40;;;;;;;;;;5066175;28;20184;-83
2024/03/24 10:09:13;;;;;;;6.68;3.80;;;;;;;;;;5048810;28;20175;-82
2024/03/24 10:11:39;;;;;;;7.95;4.95;;;;;;;;;;5054658;28;20597;-83
2024/03/24 10:14:08;;;;;;;6.82;2.72;;;;;;;;;;5055048;28;20687;-84
2024/03/24 10:16:34;;;;;;;8.73;3.20;;;;;;;;;;5061333;28;20216;-83
2024/03/24 10:19:10;;;;;;;12.68;3.22;;;;;;;;;;5064697;28;20645;-85
2024/03/24 10:21:36;;;;;;;9.43;2.92;;;;;;;;;;5047986;28;20177;-82
2024/03/24 10:24:02;;;;;;;6.55;3.00;;;;;;;;;;5059791;28;20189;-84
2024/03/24 10:26:29;;;;;;;6.50;2.80;;;;;;;;;;5069500;28;20173;-87
2024/03/24 10:28:56;;;;;;;7.45;3.42;;;;;;;;;;5051095;28;20187;-81
2024/03/24 10:31:21;;;;;;;8.63;2.47;;;;;;;;;;5048487;28;20192;-93
2024/03/24 10:33:47;;;;;;;4.17;3.00;;;;;;;;;;5043090;28;20230;-83
2024/03/24 10:36:13;;;;;;;5.23;3.27;;;;;;;;;;5046642;28;20496;-81
2024/03/24 10:38:41;;;;;;;4.73;2.77;;;;;;;;;;5061600;28;20435;-82
2024/03/24 10:41:08;;;;;;;10.07;3.38;;;;;;;;;;5067049;28;20416;-84
2024/03/24 10:43:34;;;;;;;5.03;2.58;;;;;;;;;;5052078;28;20564;-81
2024/03/24 10:46:01;;;;;;;9.98;2.60;;;;;;;;;;5049333;28;20761;-82
2024/03/24 10:48:33;;;;;;;8.30;3.10;;;;;;;;;;5052448;28;20180;-84
2024/03/24 10:51:01;;;;;;;6.38;3.53;;;;;;;;;;5068426;28;20193;-83
2024/03/24 10:53:28;;;;;;;5.72;2.75;;;;;;;;;;5046845;28;20281;-81
2024/03/24 10:55:56;;;;;;;6.93;3.40;;;;;;;;;;5046444;28;20582;-83
2024/03/24 10:58:23;;;;;;;6.68;3.05;;;;;;;;;;5069635;28;20280;-82
2024/03/24 11:00:49;;;;;;;11.50;3.50;;;;;;;;;;5049208;28;20189;-82
2024/03/24 11:03:16;;;;;;;4.55;1.80;;;;;;;;;;5046824;28;20194;-85
2024/03/24 11:05:44;;;;;;;6.25;1.90;;;;;;;;;;5054371;28;20181;-82
2024/03/24 11:08:13;;;;;;;9.23;2.83;;;;;;;;;;5055224;28;20534;-81
2024/03/24 11:10:43;;;;;;;12.93;3.05;;;;;;;;;;5050834;28;20234;-80
2024/03/24 11:13:10;;;;;;;4.63;2.20;;;;;;;;;;5052206;28;20185;-84
2024/03/24 11:15:36;;;;;;;5.63;2.35;;;;;;;;;;5049581;28;20194;-85
2024/03/24 11:18:05;;;;;;;8.70;2.60;;;;;;;;;;5045762;28;20185;-87
2024/03/24 11:20:31;;;;;;;3.63;1.80;;;;;;;;;;5048013;28;20503;-83
2024/03/24 11:22:57;;;;;;;7.60;1.85;;;;;;;;;;5049239;28;20533;-83
2024/03/24 11:25:23;;;;;;;5.13;2.40;;;;;;;;;;5042846;28;20696;-82
2024/03/24 11:27:50;;;;;;;8.90;2.70;;;;;;;;;;5054149;28;20421;-83
2024/03/24 11:30:17;;;;;;;7.63;2.85;;;;;;;;;;5049728;28;20930;-85
2024/03/24 11:32:49;;;;;;;6.50;3.00;;;;;;;;;;5052230;28;20184;-82
2024/03/24 11:35:18;;;;;;;9.25;3.08;;;;;;;;;;5039698;28;20581;-83
2024/03/24 11:37:48;;;;;;;4.28;3.00;;;;;;;;;;5070444;28;20674;-84
2024/03/24 11:40:15;;;;;;;6.70;2.63;;;;;;;;;;5044682;28;20182;-82
2024/03/24 11:42:41;;;;;;;8.43;2.28;;;;;;;;;;5045310;28;20583;-82
2024/03/24 11:45:23;;;;;;;12.68;3.47;;;;;;;;;;5046606;28;20192;-84
2024/03/24 11:47:49;;;;;;;12.18;3.80;;;;;;;;;;5069233;28;20229;-83
2024/03/24 11:50:15;;;;;;;6.10;2.25;;;;;;;;;;5045196;28;20180;-82
2024/03/24 11:52:41;;;;;;;10.10;3.53;;;;;;;;;;5046884;28;20224;-82
2024/03/24 11:55:08;;;;;;;11.25;3.55;;;;;;;;;;5042693;28;20218;-81
2024/03/24 11:57:34;;;;;;;9.70;3.30;;;;;;;;;;5051254;28;20200;-85
2024/03/24 12:00:04;;;;;;;8.30;3.90;;;;;;;;;;5049085;28;20185;-84
2024/03/24 12:02:30;;;;;;;9.93;2.72;;;;;;;;;;5051799;28;20424;-84
2024/03/24 12:04:56;;;;;;;5.20;2.23;;;;;;;;;;5045911;28;20854;-84
2024/03/24 12:07:22;;;;;;;6.47;3.20;;;;;;;;;;5045986;28;20546;-84
2024/03/24 12:09:48;;;;;;;14.38;3.67;;;;;;;;;;5046246;28;20447;-81
2024/03/24 12:12:14;;;;;;;9.20;3.10;;;;;;;;;;5044558;28;20181;-83
2024/03/24 12:14:40;;;;;;;9.85;3.80;;;;;;;;;;5048166;28;20343;-84
2024/03/24 12:17:07;;;;;;;8.03;4.03;;;;;;;;;;5044261;28;20225;-80
2024/03/24 12:19:33;;;;;;;3.70;3.30;;;;;;;;;;5061251;28;20424;-83
2024/03/24 12:22:02;;;;;;;11.75;3.08;;;;;;;;;;5055964;28;20191;-82
2024/03/24 12:24:28;;;;;;;9.55;2.83;;;;;;;;;;5051443;28;20584;-84
2024/03/24 12:26:54;;;;;;;7.15;2.65;;;;;;;;;;5069143;28;20209;-82
2024/03/24 12:29:20;;;;;;;4.43;2.08;;;;;;;;;;5052532;28;20633;-83
2024/03/24 12:31:50;;;;;;;3.65;1.98;;;;;;;;;;5053103;28;20239;-81
2024/03/24 12:34:16;;;;;;;5.05;1.65;;;;;;;;;;5070095;28;20246;-86
2024/03/24 12:36:42;;;;;;;4.50;1.67;;;;;;;;;;5049009;28;20547;-81
2024/03/24 12:39:12;;;;;;;9.23;2.63;;;;;;;;;;5064680;28;20189;-81
2024/03/24 12:41:39;;;;;;;7.47;2.20;;;;;;;;;;5064344;28;20227;-83
2024/03/24 12:44:05;;;;;;;5.90;2.17;;;;;;;;;;5049923;28;20182;-84
2024/03/24 12:46:34;;;;;;;5.22;2.05;;;;;;;;;;5044515;28;20254;-83
2024/03/24 12:49:13;;;;;;;8.55;2.45;;;;;;;;;;5054496;28;20240;-81
2024/03/24 12:51:39;;;;;;;10.85;2.25;;;;;;;;;;5047578;28;20181;-82
2024/03/24 12:54:10;;;;;;;3.03;2.72;;;;;;;;;;5065629;28;20205;-83
2024/03/24 12:56:38;;;;;;;10.75;2.40;;;;;;;;;;5069678;28;20194;-82
2024/03/24 12:59:04;;;;;;;6.10;1.80;;;;;;;;;;5049465;28;20179;-83
2024/03/24 13:01:31;;;;;;;5.33;1.77;;;;;;;;;;5062051;28;20209;-81
2024/03/24 13:03:57;;;;;;;6.68;2.00;;;;;;;;;;5056639;28;20839;-81
2024/03/24 13:06:26;;;;;;;4.65;1.83;;;;;;;;;;5044482;28;20216;-82
2024/03/24 13:08:52;;;;;;;10.50;4.57;;;;;;;;;;5056642;28;20169;-82
2024/03/24 13:11:20;;;;;;;4.70;2.80;;;;;;;;;;5050599;28;20193;-81
2024/03/24 13:13:46;;;;;;;7.75;1.98;;;;;;;;;;5063421;28;20198;-81
2024/03/24 13:16:16;;;;;;;4.90;1.85;;;;;;;;;;5046545;28;20207;-84
2024/03/24 13:18:48;;;;;;;5.10;2.17;;;;;;;;;;5062150;28;20178;-81
2024/03/24 13:21:17;;;;;;;11.35;2.17;;;;;;;;;;5051252;28;20181;-81
2024/03/24 13:23:45;;;;;;;6.45;2.13;;;;;;;;;;5047795;28;20266;-82
2024/03/24 13:26:11;;;;;;;8.80;2.08;;;;;;;;;;5064641;28;20534;-83
2024/03/24 13:28:37;;;;;;;5.18;1.50;;;;;;;;;;5053983;28;20225;-83
2024/03/24 13:31:03;;;;;;;5.83;1.90;;;;;;;;;;5051358;28;20552;-81
2024/03/24 13:33:29;;;;;;;11.02;2.00;;;;;;;;;;5048585;28;20464;-80
2024/03/24 13:35:55;;;;;;;7.63;2.30;;;;;;;;;;5044496;28;20249;-84
2024/03/24 13:38:36;;;;;;;10.05;2.95;;;;;;;;;;5063197;28;20424;-84
2024/03/24 13:41:02;;;;;;;7.22;2.80;;;;;;;;;;5045796;28;20177;-83
2024/03/24 13:43:28;;;;;;;7.70;1.77;;;;;;;;;;5055624;28;20204;-84
2024/03/24 13:46:17;;;;;;;6.40;2.47;;;;;;;;;;5067648;28;20530;-83
2024/03/24 13:48:45;;;;;;;10.75;2.33;;;;;;;;;;5067348;28;20502;-87
2024/03/24 13:51:12;;;;;;;4.63;2.05;;;;;;;;;;5047745;28;20181;-83
2024/03/24 13:53:39;;;;;;;5.75;2.45;;;;;;;;;;5071102;28;20275;-83
2024/03/24 13:56:06;;;;;;;4.63;2.10;;;;;;;;;;5056236;28;20544;-83
2024/03/24 13:58:32;;;;;;;5.25;2.00;;;;;;;;;;5045259;28;20278;-83
2024/03/24 14:00:59;;;;;;;6.50;3.00;;;;;;;;;;5049050;28;20181;-83
2024/03/24 14:03:25;;;;;;;11.13;3.13;;;;;;;;;;5053312;28;20192;-82
2024/03/24 14:05:51;;;;;;;5.00;2.97;;;;;;;;;;5039467;28;20178;-83
2024/03/24 14:08:17;;;;;;;8.20;3.10;;;;;;;;;;5066440;28;20188;-82
2024/03/24 14:10:43;;;;;;;5.57;2.67;;;;;;;;;;5055016;28;20436;-83
2024/03/24 14:13:12;;;;;;;4.67;2.80;;;;;;;;;;5048195;28;20823;-81
2024/03/24 14:15:44;;;;;;;7.05;2.38;;;;;;;;;;5050486;28;20854;-82
2024/03/24 14:18:19;;;;;;;5.20;1.90;;;;;;;;;;5060335;28;20193;-83
2024/03/24 14:20:58;;;;;;;4.80;2.20;;;;;;;;;;5047218;28;20174;-84
2024/03/24 14:23:28;;;;;;;4.88;2.10;;;;;;;;;;5042832;28;20211;-84
2024/03/24 14:26:00;;;;;;;5.82;2.42;;;;;;;;;;5054145;28;20184;-83
2024/03/24 14:28:27;;;;;;;2.15;1.70;;;;;;;;;;5055542;28;20253;-81
2024/03/24 14:30:53;;;;;;;4.10;2.10;;;;;;;;;;5058673;28;20208;-82
2024/03/24 14:33:19;;;;;;;7.07;3.58;;;;;;;;;;5045760;28;20328;-79
2024/03/24 14:35:57;;;;;;;4.60;1.55;;;;;;;;;;5049312;28;20185;-82